createdAt,value
2023-02-04T00:00:27.572Z,10.80
2023-02-04T00:02:58.022Z,10.80
2023-02-04T00:05:28.433Z,10.90
2023-02-04T00:07:59.075Z,10.90
2023-02-04T00:10:32.496Z,10.90
2023-02-04T00:13:03.068Z,10.80
2023-02-04T00:15:33.710Z,10.80
2023-02-04T00:18:05.829Z,10.90
2023-02-04T00:20:38.851Z,10.90
2023-02-04T00:23:09.128Z,10.80
2023-02-04T00:25:42.114Z,10.90
2023-02-04T00:28:12.492Z,10.80
2023-02-04T00:30:43.022Z,10.80
2023-02-04T00:33:13.378Z,10.80
2023-02-04T00:35:43.750Z,10.80
2023-02-04T00:38:14.134Z,10.80
2023-02-04T00:40:47.173Z,10.80
2023-02-04T00:43:17.489Z,10.80
2023-02-04T00:45:48.211Z,10.80
2023-02-04T00:48:19.671Z,10.80
2023-02-04T00:50:53.906Z,10.80
2023-02-04T00:53:25.209Z,10.80
2023-02-04T00:55:59.050Z,10.80
2023-02-04T00:58:29.688Z,10.80
2023-02-04T01:01:00.141Z,10.80
2023-02-04T01:03:31.015Z,10.70
2023-02-04T01:06:01.588Z,10.80
2023-02-04T01:08:31.970Z,10.80
2023-02-04T01:11:06.025Z,10.80
2023-02-04T01:13:37.133Z,10.70
2023-02-04T01:16:07.788Z,10.80
2023-02-04T01:18:38.259Z,10.80
2023-02-04T01:21:09.761Z,10.70
2023-02-04T01:23:40.844Z,10.70
2023-02-04T01:26:14.107Z,10.80
2023-02-04T01:28:44.425Z,10.70
2023-02-04T01:31:16.436Z,10.70
2023-02-04T01:33:47.754Z,10.80
2023-02-04T01:36:31.177Z,10.80
2023-02-04T01:39:01.906Z,10.70
2023-02-04T01:41:34.871Z,10.80
2023-02-04T01:44:05.665Z,10.80
2023-02-04T01:46:37.590Z,10.80
2023-02-04T01:49:09.445Z,10.80
2023-02-04T01:51:41.353Z,10.80
2023-02-04T01:54:15.094Z,10.70
2023-02-04T01:56:51.757Z,10.60
2023-02-04T01:59:22.270Z,10.50
2023-02-04T02:01:57.162Z,10.50
2023-02-04T02:04:34.296Z,10.50
2023-02-04T02:07:10.075Z,10.50
2023-02-04T02:09:40.746Z,10.50
2023-02-04T02:12:14.548Z,10.60
2023-02-04T02:14:45.465Z,10.50
2023-02-04T02:17:15.940Z,10.50
2023-02-04T02:19:46.667Z,10.50
2023-02-04T02:22:24.264Z,10.50
2023-02-04T02:24:57.824Z,10.40
2023-02-04T02:27:28.594Z,10.50
2023-02-04T02:30:01.697Z,10.50
2023-02-04T02:32:34.247Z,10.50
2023-02-04T02:35:05.630Z,10.50
2023-02-04T02:37:36.378Z,10.50
2023-02-04T02:40:11.068Z,10.50
2023-02-04T02:42:43.837Z,10.50
2023-02-04T02:45:21.402Z,10.60
2023-02-04T02:47:52.564Z,10.50
2023-02-04T02:50:26.656Z,10.50
2023-02-04T02:52:58.217Z,10.60
2023-02-04T02:55:32.770Z,10.50
2023-02-04T02:58:09.987Z,10.60
2023-02-04T03:00:40.415Z,10.60
2023-02-04T03:03:16.184Z,10.60
2023-02-04T03:05:50.097Z,10.40
2023-02-04T03:08:21.621Z,10.50
2023-02-04T03:10:54.884Z,10.50
2023-02-04T03:13:25.624Z,10.50
2023-02-04T03:15:56.654Z,10.50
2023-02-04T03:18:27.612Z,10.50
2023-02-04T03:20:59.092Z,10.60
2023-02-04T03:23:30.134Z,10.60
2023-02-04T03:26:03.145Z,10.60
2023-02-04T03:28:34.596Z,10.60
2023-02-04T03:31:14.774Z,10.60
2023-02-04T03:33:45.230Z,10.60
2023-02-04T03:36:15.631Z,10.60
2023-02-04T03:38:45.959Z,10.60
2023-02-04T03:41:18.941Z,10.60
2023-02-04T03:43:49.216Z,10.50
2023-02-04T03:46:19.680Z,10.60
2023-02-04T03:48:49.982Z,10.60
2023-02-04T03:51:20.248Z,10.60
2023-02-04T03:53:50.528Z,10.50
2023-02-04T03:56:23.468Z,10.60
2023-02-04T03:58:53.746Z,10.50
2023-02-04T04:01:24.125Z,10.50
2023-02-04T04:03:54.461Z,10.50
2023-02-04T04:06:24.791Z,10.60
2023-02-04T04:08:55.081Z,10.50
2023-02-04T04:11:28.062Z,10.60
2023-02-04T04:13:58.327Z,10.60
2023-02-04T04:16:28.658Z,10.50
2023-02-04T04:18:58.992Z,10.60
2023-02-04T04:21:29.274Z,10.60
2023-02-04T04:23:59.749Z,10.50
2023-02-04T04:26:32.633Z,10.60
2023-02-04T04:29:02.926Z,10.60
2023-02-04T04:31:33.341Z,10.60
2023-02-04T04:34:04.358Z,10.60
2023-02-04T04:36:34.685Z,10.60
2023-02-04T04:39:05.058Z,10.60
2023-02-04T04:41:38.252Z,10.60
2023-02-04T04:44:10.767Z,10.60
2023-02-04T04:46:43.279Z,10.50
2023-02-04T04:49:13.807Z,10.50
2023-02-04T04:51:44.404Z,10.60
2023-02-04T04:54:15.628Z,10.60
2023-02-04T04:56:49.220Z,10.60
2023-02-04T04:59:19.605Z,10.50
2023-02-04T05:01:49.950Z,10.60
2023-02-04T05:04:21.028Z,10.60
2023-02-04T05:06:51.581Z,10.50
2023-02-04T05:09:21.971Z,10.60
2023-02-04T05:11:55.391Z,10.50
2023-02-04T05:14:27.008Z,10.50
2023-02-04T05:16:57.580Z,10.50
2023-02-04T05:19:28.007Z,10.50
2023-02-04T05:22:01.810Z,10.50
2023-02-04T05:24:34.572Z,10.50
2023-02-04T05:27:08.083Z,10.50
2023-02-04T05:29:38.676Z,10.50
2023-02-04T05:32:09.023Z,10.50
2023-02-04T05:34:40.094Z,10.50
2023-02-04T05:37:10.684Z,10.50
2023-02-04T05:39:41.020Z,10.50
2023-02-04T05:42:17.177Z,10.50
2023-02-04T05:44:48.368Z,10.50
2023-02-04T05:47:20.581Z,10.60
2023-02-04T05:49:50.871Z,10.50
2023-02-04T05:52:22.184Z,10.50
2023-02-04T05:54:52.572Z,10.50
2023-02-04T05:57:25.461Z,10.50
2023-02-04T05:59:55.808Z,10.50
2023-02-04T06:02:26.144Z,10.50
2023-02-04T06:04:56.657Z,10.50
2023-02-04T06:07:27.516Z,10.50
2023-02-04T06:09:59.525Z,10.50
2023-02-04T06:12:33.340Z,10.50
2023-02-04T06:15:03.736Z,10.50
2023-02-04T06:17:33.997Z,10.50
2023-02-04T06:20:04.518Z,10.50
2023-02-04T06:22:34.829Z,10.50
2023-02-04T06:25:05.506Z,10.50
2023-02-04T06:27:38.471Z,10.50
2023-02-04T06:30:09.782Z,10.50
2023-02-04T06:32:40.043Z,10.50
2023-02-04T06:35:13.215Z,10.50
2023-02-04T06:37:43.642Z,10.50
2023-02-04T06:40:15.462Z,10.50
2023-02-04T06:42:48.409Z,10.50
2023-02-04T06:45:18.823Z,10.50
2023-02-04T06:47:49.084Z,10.50
2023-02-04T06:50:20.201Z,10.50
2023-02-04T06:52:51.258Z,10.50
2023-02-04T06:55:21.665Z,10.50
2023-02-04T06:57:54.588Z,10.50
2023-02-04T07:00:25.203Z,10.50
2023-02-04T07:02:56.968Z,10.50
2023-02-04T07:05:27.321Z,10.50
2023-02-04T07:07:57.706Z,10.50
2023-02-04T07:10:28.110Z,10.50
2023-02-04T07:13:01.899Z,10.50
2023-02-04T07:15:32.272Z,10.50
2023-02-04T07:18:02.675Z,10.50
2023-02-04T07:20:33.406Z,10.50
2023-02-04T07:23:03.921Z,10.50
2023-02-04T07:25:34.434Z,10.50
2023-02-04T07:28:07.523Z,10.50
2023-02-04T07:30:37.977Z,10.50
2023-02-04T07:33:08.384Z,10.50
2023-02-04T07:35:38.813Z,10.50
2023-02-04T07:38:09.462Z,10.50
2023-02-04T07:40:39.884Z,10.40
2023-02-04T07:43:12.853Z,10.40
2023-02-04T07:45:43.242Z,10.40
2023-02-04T07:48:13.696Z,10.40
2023-02-04T07:50:44.108Z,10.40
2023-02-04T07:53:14.508Z,10.40
2023-02-04T07:55:44.898Z,10.40
2023-02-04T07:58:17.841Z,10.40
2023-02-04T08:00:48.342Z,10.30
2023-02-04T08:03:18.672Z,10.30
2023-02-04T08:05:49.104Z,10.30
2023-02-04T08:08:19.704Z,10.30
2023-02-04T08:10:50.393Z,10.40
2023-02-04T08:13:23.358Z,10.40
2023-02-04T08:15:53.741Z,10.40
2023-02-04T08:18:25.189Z,10.40
2023-02-04T08:20:55.633Z,10.40
2023-02-04T08:23:26.006Z,10.40
2023-02-04T08:25:56.355Z,10.40
2023-02-04T08:28:29.527Z,10.40
2023-02-04T08:31:00.026Z,10.40
2023-02-04T08:33:30.528Z,10.40
2023-02-04T08:36:01.043Z,10.40
2023-02-04T08:38:31.336Z,10.40
2023-02-04T08:41:02.396Z,10.40
2023-02-04T08:43:35.423Z,10.50
2023-02-04T08:46:05.928Z,10.40
2023-02-04T08:48:36.298Z,10.40
2023-02-04T08:51:06.970Z,10.40
2023-02-04T08:53:37.946Z,10.40
2023-02-04T08:56:10.554Z,10.40
2023-02-04T08:58:43.624Z,10.50
2023-02-04T09:01:14.209Z,10.50
2023-02-04T09:03:45.075Z,10.40
2023-02-04T09:06:16.135Z,10.40
2023-02-04T09:08:46.548Z,10.50
2023-02-04T09:11:16.875Z,10.40
2023-02-04T09:13:49.868Z,10.40
2023-02-04T09:16:20.968Z,10.40
2023-02-04T09:18:51.305Z,10.40
2023-02-04T09:21:21.686Z,10.50
2023-02-04T09:23:52.106Z,10.50
2023-02-04T09:26:22.567Z,10.40
2023-02-04T09:28:55.553Z,10.50
2023-02-04T09:31:26.021Z,10.50
2023-02-04T09:33:56.389Z,10.50
2023-02-04T09:36:29.308Z,10.50
2023-02-04T09:38:59.689Z,10.50
2023-02-04T09:41:30.060Z,10.50
2023-02-04T09:44:03.990Z,10.40
2023-02-04T09:46:35.970Z,10.50
2023-02-04T09:49:06.969Z,10.50
2023-02-04T09:51:38.851Z,10.50
2023-02-04T09:54:12.054Z,10.50
2023-02-04T09:56:44.735Z,10.50
2023-02-04T09:59:20.067Z,10.60
2023-02-04T10:01:54.810Z,10.70
2023-02-04T10:04:25.956Z,10.60
2023-02-04T10:06:58.695Z,10.60
2023-02-04T10:09:29.314Z,10.60
2023-02-04T10:11:59.720Z,10.60
2023-02-04T10:14:32.706Z,10.60
2023-02-04T10:17:04.947Z,10.60
2023-02-04T10:19:35.414Z,10.60
2023-02-04T10:22:07.151Z,10.60
2023-02-04T10:24:38.768Z,10.60
2023-02-04T10:27:12.800Z,10.60
2023-02-04T10:29:59.096Z,10.60
2023-02-04T10:32:32.254Z,10.70
2023-02-04T10:35:04.371Z,10.70
2023-02-04T10:37:34.960Z,10.70
2023-02-04T10:40:05.279Z,10.70
2023-02-04T10:42:35.619Z,10.70
2023-02-04T10:45:09.368Z,10.70
2023-02-04T10:47:39.789Z,10.80
2023-02-04T10:50:20.174Z,10.70
2023-02-04T10:52:55.506Z,10.70
2023-02-04T10:55:24.499Z,10.70
2023-02-04T10:57:55.782Z,10.70
2023-02-04T11:00:30.138Z,10.70
2023-02-04T11:03:04.899Z,10.70
2023-02-04T11:05:37.293Z,10.70
2023-02-04T11:08:23.789Z,10.70
2023-02-04T11:10:55.511Z,10.70
2023-02-04T11:13:28.376Z,10.70
2023-02-04T11:16:13.786Z,10.80
2023-02-04T11:18:55.653Z,10.80
2023-02-04T11:21:29.070Z,10.80
2023-02-04T11:27:42.732Z,10.80
2023-02-04T11:30:25.979Z,10.80
2023-02-04T11:33:06.726Z,10.80
2023-02-04T11:35:37.079Z,10.80
2023-02-04T11:38:07.355Z,10.80
2023-02-04T11:40:39.278Z,10.80
2023-02-04T11:43:16.619Z,10.80
2023-02-04T11:45:47.568Z,10.90
2023-02-04T11:48:22.910Z,10.90
2023-02-04T11:50:59.685Z,11.00
2023-02-04T11:53:33.094Z,11.00
2023-02-04T11:56:03.496Z,11.00
2023-02-04T11:58:34.858Z,11.00
2023-02-04T12:01:05.192Z,11.00
2023-02-04T12:03:48.522Z,11.00
2023-02-04T12:06:24.993Z,11.10
2023-02-04T12:08:55.476Z,11.10
2023-02-04T12:11:33.123Z,11.10
2023-02-04T12:14:20.289Z,11.10
2023-02-04T12:16:51.718Z,11.10
2023-02-04T12:19:26.739Z,11.10
2023-02-04T12:21:58.056Z,11.20
2023-02-04T12:24:28.374Z,11.10
2023-02-04T12:26:58.734Z,11.20
2023-02-04T12:29:29.083Z,11.20
2023-02-04T12:31:59.480Z,11.20
2023-02-04T12:34:32.433Z,11.10
2023-02-04T12:37:02.789Z,11.10
2023-02-04T12:39:33.121Z,11.10
2023-02-04T12:42:04.622Z,11.20
2023-02-04T12:44:35.834Z,11.20
2023-02-04T12:47:06.262Z,11.20
2023-02-04T12:49:39.758Z,11.30
2023-02-04T12:52:10.323Z,11.30
2023-02-04T12:54:40.811Z,11.30
2023-02-04T12:57:11.790Z,11.30
2023-02-04T12:59:42.111Z,11.30
2023-02-04T13:02:13.566Z,11.30
2023-02-04T13:04:46.591Z,11.30
2023-02-04T13:07:17.024Z,11.30
2023-02-04T13:09:48.428Z,11.30
2023-02-04T13:12:19.262Z,11.30
2023-02-04T13:14:49.682Z,11.40
2023-02-04T13:17:20.382Z,11.40
2023-02-04T13:19:53.366Z,11.30
2023-02-04T13:22:23.778Z,11.30
2023-02-04T13:24:54.130Z,11.30
2023-02-04T13:27:24.510Z,11.30
2023-02-04T13:29:54.852Z,11.40
2023-02-04T13:32:25.347Z,11.40
2023-02-04T13:34:58.263Z,11.40
2023-02-04T13:37:28.881Z,11.40
2023-02-04T13:39:59.244Z,11.50
2023-02-04T13:42:29.773Z,11.50
2023-02-04T13:45:00.314Z,11.50
2023-02-04T13:47:30.738Z,11.50
2023-02-04T13:50:03.938Z,11.50
2023-02-04T13:52:34.671Z,11.50
2023-02-04T13:55:05.228Z,11.60
2023-02-04T13:57:37.473Z,11.70
2023-02-04T14:00:09.355Z,11.60
2023-02-04T14:02:43.065Z,11.70
2023-02-04T14:05:16.026Z,11.50
2023-02-04T14:07:46.361Z,11.60
2023-02-04T14:10:16.685Z,11.60
2023-02-04T14:12:47.048Z,11.60
2023-02-04T14:15:17.588Z,11.60
2023-02-04T14:17:47.980Z,11.60
2023-02-04T14:20:21.501Z,11.50
2023-02-04T14:22:51.808Z,11.60
2023-02-04T14:25:22.132Z,11.60
2023-02-04T14:27:52.623Z,11.60
2023-02-04T14:30:25.213Z,11.60
2023-02-04T14:32:56.374Z,11.60
2023-02-04T14:35:29.468Z,11.60
2023-02-04T14:37:59.937Z,11.60
2023-02-04T14:40:30.543Z,11.60
2023-02-04T14:43:02.051Z,11.60
2023-02-04T14:45:32.672Z,11.60
2023-02-04T14:48:03.117Z,11.70
2023-02-04T14:50:36.339Z,11.70
2023-02-04T14:53:06.781Z,11.70
2023-02-04T14:55:37.234Z,11.70
2023-02-04T14:58:07.650Z,11.70
2023-02-04T15:00:38.096Z,11.60
2023-02-04T15:03:08.611Z,11.60
2023-02-04T15:05:41.671Z,11.60
2023-02-04T15:08:12.337Z,11.60
2023-02-04T15:10:42.705Z,11.70
2023-02-04T15:13:13.425Z,11.70
2023-02-04T15:15:43.845Z,11.70
2023-02-04T15:18:14.669Z,11.70
2023-02-04T15:20:47.788Z,11.70
2023-02-04T15:23:18.334Z,11.70
2023-02-04T15:25:48.829Z,11.60
2023-02-04T15:28:19.528Z,11.60
2023-02-04T15:30:49.998Z,11.60
2023-02-04T15:33:20.683Z,11.70
2023-02-04T15:35:53.738Z,11.60
2023-02-04T15:38:24.177Z,11.70
2023-02-04T15:40:54.574Z,11.60
2023-02-04T15:43:24.918Z,11.60
2023-02-04T15:45:55.552Z,11.60
2023-02-04T15:48:27.720Z,11.60
2023-02-04T15:51:00.791Z,11.60
2023-02-04T15:53:31.246Z,11.60
2023-02-04T15:56:01.806Z,11.60
2023-02-04T15:58:32.270Z,11.60
2023-02-04T16:01:02.736Z,11.60
2023-02-04T16:03:33.297Z,11.60
2023-02-04T16:06:06.620Z,11.60
2023-02-04T16:08:37.178Z,11.60
2023-02-04T16:11:07.963Z,11.60
2023-02-04T16:13:38.515Z,11.60
2023-02-04T16:16:09.991Z,11.60
2023-02-04T16:18:40.481Z,11.60
2023-02-04T16:21:13.586Z,11.60
2023-02-04T16:23:44.056Z,11.60
2023-02-04T16:26:14.522Z,11.50
2023-02-04T16:28:47.488Z,11.60
2023-02-04T16:31:18.510Z,11.50
2023-02-04T16:33:49.102Z,11.50
2023-02-04T16:36:22.696Z,11.70
2023-02-04T16:38:53.067Z,11.60
2023-02-04T16:41:23.768Z,11.50
2023-02-04T16:43:54.314Z,11.50
2023-02-04T16:46:24.753Z,11.50
2023-02-04T16:48:55.172Z,11.50
2023-02-04T16:51:28.579Z,11.50
2023-02-04T16:53:59.385Z,11.50
2023-02-04T16:56:35.411Z,11.50
2023-02-04T16:59:06.222Z,11.50
2023-02-04T17:01:36.879Z,11.50
2023-02-04T17:04:07.682Z,11.40
2023-02-04T17:06:40.672Z,11.40
2023-02-04T17:09:11.658Z,11.50
2023-02-04T17:11:42.200Z,11.40
2023-02-04T17:14:16.102Z,11.50
2023-02-04T17:16:47.308Z,11.50
2023-02-04T17:19:19.152Z,11.40
2023-02-04T17:21:52.185Z,11.40
2023-02-04T17:24:23.383Z,11.40
2023-02-04T17:26:53.775Z,11.40
2023-02-04T17:29:25.131Z,11.40
2023-02-04T17:31:56.618Z,11.40
2023-02-04T17:34:27.114Z,11.40
2023-02-04T17:37:00.198Z,11.40
2023-02-04T17:39:30.575Z,11.40
2023-02-04T17:42:01.043Z,11.40
2023-02-04T17:44:32.159Z,11.50
2023-02-04T17:47:03.208Z,11.40
2023-02-04T17:49:34.466Z,11.40
2023-02-04T17:52:07.969Z,11.40
2023-02-04T17:54:38.740Z,11.40
2023-02-04T17:57:20.075Z,11.40
2023-02-04T17:59:51.701Z,11.40
2023-02-04T18:02:29.851Z,11.40
2023-02-04T18:05:03.527Z,11.40
2023-02-04T18:07:36.714Z,11.40
2023-02-04T18:10:22.561Z,11.40
2023-02-04T18:12:53.194Z,11.40
2023-02-04T18:15:28.680Z,11.40
2023-02-04T18:18:18.199Z,11.40
2023-02-04T18:20:48.764Z,11.30
2023-02-04T18:23:22.641Z,11.40
2023-02-04T18:25:53.003Z,11.30
2023-02-04T18:28:24.894Z,11.30
2023-02-04T18:30:57.233Z,11.30
2023-02-04T18:33:29.412Z,11.30
2023-02-04T18:36:03.792Z,11.30
2023-02-04T18:38:39.367Z,11.30
2023-02-04T18:41:31.601Z,11.40
2023-02-04T18:44:05.266Z,11.40
2023-02-04T18:46:43.262Z,11.40
2023-02-04T18:49:28.020Z,11.30
2023-02-04T18:52:06.501Z,11.20
2023-02-04T18:54:41.034Z,11.30
2023-02-04T18:57:39.139Z,11.30
2023-02-04T19:00:30.960Z,11.30
2023-02-04T19:03:03.858Z,11.30
2023-02-04T19:05:38.786Z,11.30
2023-02-04T19:08:26.630Z,11.30
2023-02-04T19:11:02.890Z,11.30
2023-02-04T19:13:42.700Z,11.30
2023-02-04T19:16:25.174Z,11.20
2023-02-04T19:18:57.795Z,11.20
2023-02-04T19:21:30.391Z,11.20
2023-02-04T19:24:18.551Z,11.20
2023-02-04T19:26:57.914Z,11.20
2023-02-04T19:29:42.468Z,11.10
2023-02-04T19:32:31.213Z,11.20
2023-02-04T19:35:04.429Z,11.20
2023-02-04T19:37:41.739Z,11.20
2023-02-04T19:40:26.891Z,11.20
2023-02-04T19:43:06.754Z,11.10
2023-02-04T19:45:37.317Z,11.10
2023-02-04T19:48:20.494Z,11.10
2023-02-04T19:50:54.194Z,11.10
2023-02-04T19:53:27.324Z,11.20
2023-02-04T19:55:58.361Z,11.20
2023-02-04T19:58:39.309Z,11.10
2023-02-04T20:01:14.835Z,11.10
2023-02-04T20:03:47.336Z,11.10
2023-02-04T20:06:36.509Z,11.10
2023-02-04T20:09:17.209Z,11.10
2023-02-04T20:12:00.669Z,11.00
2023-02-04T20:14:49.772Z,11.00
2023-02-04T20:17:46.241Z,11.00
2023-02-04T20:20:26.538Z,11.00
2023-02-04T20:22:59.529Z,11.00
2023-02-04T20:25:49.166Z,11.00
2023-02-04T20:28:40.161Z,11.00
2023-02-04T20:31:30.391Z,11.00
2023-02-04T20:34:02.877Z,11.00
2023-02-04T20:36:41.241Z,11.00
2023-02-04T20:39:38.527Z,11.00
2023-02-04T20:42:37.448Z,11.00
2023-02-04T20:45:28.181Z,11.00
2023-02-04T20:48:05.413Z,11.00
2023-02-04T20:50:41.535Z,11.00
2023-02-04T20:53:24.049Z,11.00
2023-02-04T20:56:03.892Z,11.00
2023-02-04T20:58:39.224Z,10.90
2023-02-04T21:01:22.724Z,10.90
2023-02-04T21:03:56.793Z,10.90
2023-02-04T21:06:29.224Z,10.90
2023-02-04T21:09:03.075Z,10.90
2023-02-04T21:11:33.913Z,10.90
2023-02-04T21:14:04.728Z,10.90
2023-02-04T21:16:35.558Z,10.90
2023-02-04T21:19:10.494Z,10.80
2023-02-04T21:21:41.563Z,10.90
2023-02-04T21:24:12.868Z,10.80
2023-02-04T21:26:43.528Z,10.80
2023-02-04T21:29:14.691Z,10.80
2023-02-04T21:31:46.816Z,10.80
2023-02-04T21:34:20.459Z,10.80
2023-02-04T21:36:51.401Z,10.80
2023-02-04T21:39:22.173Z,10.70
2023-02-04T21:42:10.515Z,10.70
2023-02-04T21:44:41.160Z,10.70
2023-02-04T21:47:11.761Z,10.70
2023-02-04T21:49:46.470Z,10.70
2023-02-04T21:52:17.573Z,10.60
2023-02-04T21:54:48.663Z,10.70
2023-02-04T21:57:19.621Z,10.70
2023-02-04T21:59:50.825Z,10.70
2023-02-04T22:02:24.150Z,10.70
2023-02-04T22:04:57.626Z,10.70
2023-02-04T22:07:28.650Z,10.70
2023-02-04T22:10:02.418Z,10.70
2023-02-04T22:12:33.416Z,10.60
2023-02-04T22:15:04.547Z,10.60
2023-02-04T22:17:35.828Z,10.60
2023-02-04T22:20:09.942Z,10.60
2023-02-04T22:22:40.610Z,10.60
2023-02-04T22:25:11.852Z,10.60
2023-02-04T22:27:42.611Z,10.60
2023-02-04T22:30:15.523Z,10.60
2023-02-04T22:32:46.386Z,10.50
2023-02-04T22:35:20.923Z,10.50
2023-02-04T22:37:52.049Z,10.50
2023-02-04T22:40:23.070Z,10.50
2023-02-04T22:42:53.905Z,10.60
2023-02-04T22:45:24.713Z,10.50
2023-02-04T22:47:55.798Z,10.50
2023-02-04T22:50:29.427Z,10.50
2023-02-04T22:53:00.643Z,10.50
2023-02-04T22:55:31.758Z,10.40
2023-02-04T22:58:02.657Z,10.40
2023-02-04T23:00:33.597Z,10.40
2023-02-04T23:03:04.637Z,10.50
2023-02-04T23:05:38.298Z,10.50
2023-02-04T23:08:09.576Z,10.40
2023-02-04T23:10:40.654Z,10.40
2023-02-04T23:13:11.191Z,10.40
2023-02-04T23:15:42.030Z,10.40
2023-02-04T23:18:12.697Z,10.50
2023-02-04T23:20:45.814Z,10.40
2023-02-04T23:23:17.746Z,10.40
2023-02-04T23:25:48.583Z,10.40
2023-02-04T23:28:19.345Z,10.40
2023-02-04T23:30:49.879Z,10.40
2023-02-04T23:33:20.288Z,10.40
2023-02-04T23:35:53.876Z,10.40
2023-02-04T23:38:24.409Z,10.40
2023-02-04T23:40:57.248Z,10.40
2023-02-04T23:43:27.698Z,10.40
2023-02-04T23:46:00.343Z,10.40
2023-02-04T23:48:30.787Z,10.40
2023-02-04T23:51:03.738Z,10.30
2023-02-04T23:53:34.052Z,10.30
2023-02-04T23:56:04.478Z,10.40
2023-02-04T23:58:34.817Z,10.40
